Time,TemperatureF,DewpointF,PressureIn,WindDirection,WindDirectionDegrees,WindSpeedMPH,WindSpeedGustMPH,Humidity,HourlyPrecipIn,Conditions,Clouds,dailyrainin,SoftwareType,DateUTC
2013-05-09 00:01:00,52.2,33.6,30.21,NW,317,6.3,6.3,49,0.00,,,0.00,VWS V13.01,2013-05-09 07:01:00,
2013-05-09 00:06:00,52.2,33.6,30.21,NNW,328,8.1,8.1,49,0.00,,,0.00,VWS V13.01,2013-05-09 07:06:00,
2013-05-09 00:11:00,52.2,33.1,30.21,North,7,4.9,5.8,48,0.00,,,0.00,VWS V13.01,2013-05-09 07:11:00,
2013-05-09 00:16:00,52.0,33.4,30.21,North,7,6.3,7.6,49,0.00,,,0.00,VWS V13.01,2013-05-09 07:16:00,
2013-05-09 00:21:00,52.0,33.4,30.21,North,357,2.7,4.9,49,0.00,,,0.00,VWS V13.01,2013-05-09 07:21:00,
2013-05-09 00:26:00,52.0,33.4,30.21,North,4,3.6,6.3,49,0.00,,,0.00,VWS V13.01,2013-05-09 07:26:00,
2013-05-09 00:31:00,52.0,33.4,30.21,NNE,30,4.0,4.0,49,0.00,,,0.00,VWS V13.01,2013-05-09 07:31:00,
2013-05-09 00:36:00,52.0,33.4,30.21,NNE,14,4.0,4.0,49,0.00,,,0.00,VWS V13.01,2013-05-09 07:36:00,
2013-05-09 00:41:00,52.0,33.9,30.21,NNE,31,4.0,5.8,50,0.00,,,0.00,VWS V13.01,2013-05-09 07:41:00,
2013-05-09 00:46:00,51.8,33.8,30.21,NE,42,5.8,8.1,50,0.00,,,0.00,VWS V13.01,2013-05-09 07:46:00,
2013-05-09 00:51:00,51.6,34.1,30.21,East,85,7.6,8.7,51,0.00,,,0.00,VWS V13.01,2013-05-09 07:51:00,
2013-05-09 00:56:00,51.6,34.1,30.21,ENE,62,5.8,7.6,51,0.00,,,0.00,VWS V13.01,2013-05-09 07:56:00,
2013-05-09 01:01:00,51.8,34.3,30.21,NE,49,5.4,5.4,51,0.00,,,0.00,VWS V13.01,2013-05-09 08:01:00,
2013-05-09 01:06:00,51.6,34.6,30.21,ENE,63,6.3,8.3,52,0.00,,,0.00,VWS V13.01,2013-05-09 08:06:00,
2013-05-09 01:11:00,51.6,34.6,30.21,ENE,63,2.2,3.6,52,0.00,,,0.00,VWS V13.01,2013-05-09 08:11:00,
2013-05-09 01:16:00,51.8,34.8,30.21,NE,53,7.6,8.3,52,0.00,,,0.00,VWS V13.01,2013-05-09 08:16:00,
2013-05-09 01:20:00,51.8,34.8,30.21,NE,48,5.8,5.8,52,0.00,,,0.00,VWS V13.01,2013-05-09 08:20:00,
2013-05-09 01:25:00,51.8,34.8,30.21,ENE,59,3.6,4.0,52,0.00,,,0.00,VWS V13.01,2013-05-09 08:25:00,
2013-05-09 01:30:00,51.8,34.8,30.21,NE,39,5.8,6.3,52,0.00,,,0.00,VWS V13.01,2013-05-09 08:30:00,
2013-05-09 01:35:00,51.8,34.8,30.21,ENE,58,8.1,8.1,52,0.00,,,0.00,VWS V13.01,2013-05-09 08:35:00,
2013-05-09 01:40:00,51.8,34.8,30.21,ENE,64,3.6,4.0,52,0.00,,,0.00,VWS V13.01,2013-05-09 08:40:00,
2013-05-09 01:45:00,51.8,34.8,30.21,ENE,64,5.4,7.6,52,0.00,,,0.00,VWS V13.01,2013-05-09 08:45:00,
2013-05-09 01:50:00,51.8,34.8,30.21,ENE,69,5.8,5.8,52,0.00,,,0.00,VWS V13.01,2013-05-09 08:50:00,
2013-05-09 01:55:00,51.8,34.8,30.21,ENE,69,4.0,4.9,52,0.00,,,0.00,VWS V13.01,2013-05-09 08:55:00,
2013-05-09 02:00:00,51.8,34.8,30.21,ENE,69,4.0,4.0,52,0.00,,,0.00,VWS V13.01,2013-05-09 09:00:00,
2013-05-09 02:05:00,51.8,34.3,30.21,ENE,69,3.1,4.0,51,0.00,,,0.00,VWS V13.01,2013-05-09 09:05:00,
2013-05-09 02:10:00,51.8,34.8,30.21,ENE,69,0.0,2.7,52,0.00,,,0.00,VWS V13.01,2013-05-09 09:10:00,
2013-05-09 02:15:00,51.6,34.6,30.21,ENE,69,3.6,5.4,52,0.00,,,0.00,VWS V13.01,2013-05-09 09:15:00,
2013-05-09 02:20:00,51.6,34.6,30.21,ENE,69,3.1,3.1,52,0.00,,,0.00,VWS V13.01,2013-05-09 09:20:00,
2013-05-09 02:25:00,51.6,34.6,30.21,ENE,69,3.1,4.0,52,0.00,,,0.00,VWS V13.01,2013-05-09 09:25:00,
2013-05-09 02:30:00,51.6,35.1,30.21,ENE,69,4.0,5.4,53,0.00,,,0.00,VWS V13.01,2013-05-09 09:30:00,
2013-05-09 02:35:00,51.6,35.1,30.21,ENE,69,0.0,0.0,53,0.00,,,0.00,VWS V13.01,2013-05-09 09:35:00,
2013-05-09 02:40:00,51.6,35.1,30.21,ENE,69,2.7,2.7,53,0.00,,,0.00,VWS V13.01,2013-05-09 09:40:00,
2013-05-09 02:45:00,51.6,35.1,30.21,ENE,69,3.1,3.6,53,0.00,,,0.00,VWS V13.01,2013-05-09 09:45:00,
2013-05-09 02:50:00,51.8,35.2,30.21,ENE,69,0.0,3.6,53,0.00,,,0.00,VWS V13.01,2013-05-09 09:50:00,
2013-05-09 02:55:00,51.8,34.8,30.21,ENE,69,0.0,0.0,52,0.00,,,0.00,VWS V13.01,2013-05-09 09:55:00,
2013-05-09 03:00:00,51.6,34.6,30.21,ENE,69,0.0,2.7,52,0.00,,,0.00,VWS V13.01,2013-05-09 10:00:00,
2013-05-09 03:05:00,51.6,34.6,30.21,ENE,69,4.9,4.9,52,0.00,,,0.00,VWS V13.01,2013-05-09 10:05:00,
2013-05-09 03:10:00,51.6,34.6,30.21,ENE,69,3.6,4.5,52,0.00,,,0.00,VWS V13.01,2013-05-09 10:10:00,
2013-05-09 03:15:00,51.6,35.1,30.21,ENE,69,3.1,3.6,53,0.00,,,0.00,VWS V13.01,2013-05-09 10:15:00,
2013-05-09 03:20:00,51.6,35.1,30.21,ENE,69,0.0,0.0,53,0.00,,,0.00,VWS V13.01,2013-05-09 10:20:00,
2013-05-09 03:25:00,51.6,35.1,30.21,ENE,69,0.0,2.7,53,0.00,,,0.00,VWS V13.01,2013-05-09 10:25:00,
2013-05-09 03:30:00,51.6,35.5,30.21,ENE,69,2.2,3.6,54,0.00,,,0.00,VWS V13.01,2013-05-09 10:30:00,
2013-05-09 03:35:00,51.8,35.2,30.21,ENE,69,0.0,0.0,53,0.00,,,0.00,VWS V13.01,2013-05-09 10:35:00,
2013-05-09 03:40:00,51.8,35.2,30.21,ENE,69,0.0,0.0,53,0.00,,,0.00,VWS V13.01,2013-05-09 10:40:00,
2013-05-09 03:45:00,51.6,35.1,30.21,ENE,69,0.0,0.0,53,0.00,,,0.00,VWS V13.01,2013-05-09 10:45:00,
2013-05-09 03:50:00,51.6,34.6,30.21,ENE,69,0.0,0.0,52,0.00,,,0.00,VWS V13.01,2013-05-09 10:50:00,
2013-05-09 03:55:00,51.6,34.6,30.21,ENE,69,0.0,0.0,52,0.00,,,0.00,VWS V13.01,2013-05-09 10:55:00,
2013-05-09 04:00:00,51.8,34.8,30.21,ENE,69,0.0,0.0,52,0.00,,,0.00,VWS V13.01,2013-05-09 11:00:00,
2013-05-09 04:05:00,51.6,34.6,30.21,ENE,69,3.6,5.4,52,0.00,,,0.00,VWS V13.01,2013-05-09 11:05:00,
2013-05-09 04:10:00,51.8,34.3,30.21,ENE,69,0.0,0.0,51,0.00,,,0.00,VWS V13.01,2013-05-09 11:10:00,
2013-05-09 04:15:00,51.8,34.3,30.21,ENE,69,0.0,0.0,51,0.00,,,0.00,VWS V13.01,2013-05-09 11:15:00,
2013-05-09 04:20:00,51.6,34.1,30.21,ENE,69,0.0,0.0,51,0.00,,,0.00,VWS V13.01,2013-05-09 11:20:00,
2013-05-09 04:25:00,51.6,34.1,30.21,ENE,69,0.0,0.0,51,0.00,,,0.00,VWS V13.01,2013-05-09 11:25:00,
2013-05-09 04:30:00,51.6,34.6,30.21,ENE,69,0.0,0.0,52,0.00,,,0.00,VWS V13.01,2013-05-09 11:30:00,
2013-05-09 04:35:00,51.4,34.4,30.21,ENE,69,5.8,5.8,52,0.00,,,0.00,VWS V13.01,2013-05-09 11:35:00,
2013-05-09 04:40:00,51.3,34.7,30.21,ENE,69,0.0,0.0,53,0.00,,,0.00,VWS V13.01,2013-05-09 11:40:00,
2013-05-09 04:45:00,51.4,34.9,30.21,ENE,69,0.0,0.0,53,0.00,,,0.00,VWS V13.01,2013-05-09 11:45:00,
2013-05-09 04:50:00,51.4,34.9,30.21,ENE,69,0.0,0.0,53,0.00,,,0.00,VWS V13.01,2013-05-09 11:50:00,
2013-05-09 04:55:00,51.3,34.7,30.21,ENE,69,0.0,0.0,53,0.00,,,0.00,VWS V13.01,2013-05-09 11:55:00,
2013-05-09 05:00:00,51.1,35.0,30.21,ENE,69,4.0,5.4,54,0.00,,,0.00,VWS V13.01,2013-05-09 12:00:00,
2013-05-09 05:05:00,50.9,35.3,30.21,ENE,69,4.0,6.3,55,0.00,,,0.00,VWS V13.01,2013-05-09 12:05:00,
2013-05-09 05:10:00,50.9,35.8,30.21,ENE,69,2.7,2.7,56,0.00,,,0.00,VWS V13.01,2013-05-09 12:10:00,
2013-05-09 05:15:00,50.9,35.8,30.21,ENE,69,0.0,0.0,56,0.00,,,0.00,VWS V13.01,2013-05-09 12:15:00,
2013-05-09 05:20:00,51.1,36.0,30.21,ENE,69,0.0,0.0,56,0.00,,,0.00,VWS V13.01,2013-05-09 12:20:00,
2013-05-09 05:25:00,50.9,35.8,30.21,ENE,69,0.0,0.0,56,0.00,,,0.00,VWS V13.01,2013-05-09 12:25:00,
2013-05-09 05:30:00,50.9,35.8,30.21,ENE,69,0.0,0.0,56,0.00,,,0.00,VWS V13.01,2013-05-09 12:30:00,
2013-05-09 05:35:00,51.1,36.0,30.21,ENE,69,0.0,2.2,56,0.00,,,0.00,VWS V13.01,2013-05-09 12:35:00,
2013-05-09 05:40:00,51.1,36.0,30.21,ENE,69,0.0,0.0,56,0.00,,,0.00,VWS V13.01,2013-05-09 12:40:00,
2013-05-09 05:45:00,51.3,36.1,30.21,ENE,69,0.0,0.0,56,0.00,,,0.00,VWS V13.01,2013-05-09 12:45:00,
2013-05-09 05:50:00,51.3,36.1,30.21,ENE,69,0.0,0.0,56,0.00,,,0.00,VWS V13.01,2013-05-09 12:50:00,
2013-05-09 05:55:00,51.4,36.3,30.21,ENE,69,0.0,0.0,56,0.00,,,0.00,VWS V13.01,2013-05-09 12:55:00,
2013-05-09 06:00:00,51.3,35.7,30.21,ENE,69,0.0,0.0,55,0.00,,,0.00,VWS V13.01,2013-05-09 13:00:00,
2013-05-09 06:05:00,51.1,35.0,30.21,ENE,69,0.0,0.0,54,0.00,,,0.00,VWS V13.01,2013-05-09 13:05:00,
2013-05-09 06:10:00,50.9,35.3,30.21,ENE,69,2.7,4.0,55,0.00,,,0.00,VWS V13.01,2013-05-09 13:10:00,
2013-05-09 06:15:00,50.9,35.3,30.21,ENE,69,2.7,2.7,55,0.00,,,0.00,VWS V13.01,2013-05-09 13:15:00,
2013-05-09 06:20:00,51.1,36.0,30.21,ENE,69,0.0,0.0,56,0.00,,,0.00,VWS V13.01,2013-05-09 13:20:00,
2013-05-09 06:25:00,51.1,35.5,30.21,ENE,69,0.0,0.0,55,0.00,,,0.00,VWS V13.01,2013-05-09 13:25:00,
2013-05-09 06:30:00,50.9,35.3,30.21,ENE,69,0.0,0.0,55,0.00,,,0.00,VWS V13.01,2013-05-09 13:30:00,
2013-05-09 06:35:00,50.9,35.8,30.21,ENE,69,0.0,0.0,56,0.00,,,0.00,VWS V13.01,2013-05-09 13:35:00,
2013-05-09 06:40:00,50.7,35.6,30.21,ENE,69,3.1,3.1,56,0.00,,,0.00,VWS V13.01,2013-05-09 13:40:00,
2013-05-09 06:45:00,50.7,36.1,30.21,ENE,69,2.7,3.1,57,0.00,,,0.00,VWS V13.01,2013-05-09 13:45:00,
2013-05-09 06:50:00,50.7,36.1,30.21,ENE,69,0.0,0.0,57,0.00,,,0.00,VWS V13.01,2013-05-09 13:50:00,
2013-05-09 06:55:00,50.9,36.2,30.21,ENE,69,4.0,4.9,57,0.00,,,0.00,VWS V13.01,2013-05-09 13:55:00,
2013-05-09 07:00:00,50.7,36.5,30.21,ENE,69,2.7,3.1,58,0.00,,,0.00,VWS V13.01,2013-05-09 14:00:00,
2013-05-09 07:05:00,50.9,37.1,30.21,ENE,69,0.0,0.0,59,0.00,,,0.00,VWS V13.01,2013-05-09 14:05:00,
2013-05-09 07:10:00,50.9,37.1,30.21,ENE,69,0.0,2.2,59,0.00,,,0.00,VWS V13.01,2013-05-09 14:10:00,
2013-05-09 07:15:00,50.9,37.5,30.21,ENE,69,0.0,0.0,60,0.00,,,0.00,VWS V13.01,2013-05-09 14:15:00,
2013-05-09 07:20:00,50.7,36.9,30.21,ENE,69,0.0,0.0,59,0.00,,,0.00,VWS V13.01,2013-05-09 14:20:00,
2013-05-09 07:25:00,50.9,37.1,30.21,ENE,69,3.1,3.1,59,0.00,,,0.00,VWS V13.01,2013-05-09 14:25:00,
2013-05-09 07:30:00,51.1,37.7,30.21,ENE,69,0.0,0.0,60,0.00,,,0.00,VWS V13.01,2013-05-09 14:30:00,
2013-05-09 07:35:00,51.3,37.9,30.21,ENE,69,2.7,3.1,60,0.00,,,0.00,VWS V13.01,2013-05-09 14:35:00,
2013-05-09 07:40:00,51.1,36.8,30.21,ENE,69,0.0,0.0,58,0.00,,,0.00,VWS V13.01,2013-05-09 14:40:00,
2013-05-09 07:45:00,51.1,36.8,30.21,ENE,69,3.6,3.6,58,0.00,,,0.00,VWS V13.01,2013-05-09 14:45:00,
2013-05-09 07:50:00,51.3,37.0,30.24,ENE,69,3.1,3.6,58,0.00,,,0.00,VWS V13.01,2013-05-09 14:50:00,
2013-05-09 07:55:00,51.3,37.0,30.24,ENE,69,4.0,4.0,58,0.00,,,0.00,VWS V13.01,2013-05-09 14:55:00,
2013-05-09 08:00:00,51.1,36.0,30.24,ENE,69,4.0,4.9,56,0.00,,,0.00,VWS V13.01,2013-05-09 15:00:00,
2013-05-09 08:05:00,51.1,36.0,30.24,ENE,69,0.0,0.0,56,0.00,,,0.00,VWS V13.01,2013-05-09 15:05:00,
2013-05-09 08:10:00,51.3,37.0,30.24,ENE,69,5.8,5.8,58,0.00,,,0.00,VWS V13.01,2013-05-09 15:10:00,
2013-05-09 08:15:00,51.4,36.3,30.24,ENE,69,3.6,3.6,56,0.00,,,0.00,VWS V13.01,2013-05-09 15:15:00,
2013-05-09 08:20:00,51.4,35.8,30.24,ENE,69,3.6,4.0,55,0.00,,,0.00,VWS V13.01,2013-05-09 15:20:00,
2013-05-09 08:25:00,51.4,35.8,30.24,ENE,69,3.6,4.0,55,0.00,,,0.00,VWS V13.01,2013-05-09 15:25:00,
2013-05-09 08:30:00,52.0,36.3,30.24,ENE,69,0.0,0.0,55,0.00,,,0.00,VWS V13.01,2013-05-09 15:30:00,
2013-05-09 08:35:00,52.3,36.2,30.24,ENE,69,0.0,0.0,54,0.00,,,0.00,VWS V13.01,2013-05-09 15:35:00,
2013-05-09 08:40:00,52.7,36.5,30.24,ENE,69,0.0,0.0,54,0.00,,,0.00,VWS V13.01,2013-05-09 15:40:00,
2013-05-09 08:45:00,52.7,35.1,30.24,ENE,69,0.0,0.0,51,0.00,,,0.00,VWS V13.01,2013-05-09 15:45:00,
2013-05-09 08:50:00,52.7,34.1,30.24,ENE,69,0.0,0.0,49,0.00,,,0.00,VWS V13.01,2013-05-09 15:50:00,
2013-05-09 08:55:00,52.9,34.8,30.24,ENE,69,2.2,2.2,50,0.00,,,0.00,VWS V13.01,2013-05-09 15:55:00,
2013-05-09 09:00:00,53.1,34.4,30.24,ENE,69,3.6,4.0,49,0.00,,,0.00,VWS V13.01,2013-05-09 16:00:00,
2013-05-09 09:05:00,53.1,33.9,30.21,ENE,69,3.6,3.6,48,0.00,,,0.00,VWS V13.01,2013-05-09 16:05:00,
2013-05-09 09:10:00,53.4,34.2,30.21,ENE,69,0.0,0.0,48,0.00,,,0.00,VWS V13.01,2013-05-09 16:10:00,
2013-05-09 09:15:00,53.8,34.6,30.21,ENE,69,0.0,0.0,48,0.00,,,0.00,VWS V13.01,2013-05-09 16:15:00,
2013-05-09 09:20:00,54.1,34.4,30.21,ENE,69,0.0,0.0,47,0.00,,,0.00,VWS V13.01,2013-05-09 16:20:00,
2013-05-09 09:25:00,54.0,33.7,30.21,ENE,69,0.0,0.0,46,0.00,,,0.00,VWS V13.01,2013-05-09 16:25:00,
2013-05-09 09:30:00,54.3,34.0,30.21,ENE,69,0.0,0.0,46,0.00,,,0.00,VWS V13.01,2013-05-09 16:30:00,
2013-05-09 09:35:00,54.3,33.5,30.21,ENE,69,0.0,0.0,45,0.00,,,0.00,VWS V13.01,2013-05-09 16:35:00,
2013-05-09 09:40:00,54.5,34.2,30.21,ENE,69,3.1,3.6,46,0.00,,,0.00,VWS V13.01,2013-05-09 16:40:00,
2013-05-09 09:45:00,54.3,33.5,30.21,ENE,69,0.0,3.1,45,0.00,,,0.00,VWS V13.01,2013-05-09 16:45:00,
2013-05-09 09:50:00,54.9,34.5,30.21,ENE,69,0.0,0.0,46,0.00,,,0.00,VWS V13.01,2013-05-09 16:50:00,
2013-05-09 09:55:00,55.8,34.8,30.21,ENE,69,0.0,0.0,45,0.00,,,0.00,VWS V13.01,2013-05-09 16:55:00,
2013-05-09 10:00:00,56.5,34.8,30.21,ENE,69,3.1,4.0,44,0.00,,,0.00,VWS V13.01,2013-05-09 17:00:00,
2013-05-09 10:05:00,56.3,32.3,30.21,ENE,69,4.9,5.4,40,0.00,,,0.00,VWS V13.01,2013-05-09 17:05:00,
2013-05-09 10:10:00,56.1,32.8,30.21,ENE,69,5.8,5.8,41,0.00,,,0.00,VWS V13.01,2013-05-09 17:10:00,
2013-05-09 10:15:00,56.1,32.8,30.21,ENE,69,0.0,0.0,41,0.00,,,0.00,VWS V13.01,2013-05-09 17:15:00,
2013-05-09 10:20:00,56.3,32.9,30.21,ENE,69,3.6,4.0,41,0.00,,,0.00,VWS V13.01,2013-05-09 17:20:00,
2013-05-09 10:25:00,56.8,32.8,30.21,ENE,69,2.7,3.1,40,0.00,,,0.00,VWS V13.01,2013-05-09 17:25:00,
2013-05-09 10:30:00,57.9,33.1,30.21,ENE,69,3.6,3.6,39,0.00,,,0.00,VWS V13.01,2013-05-09 17:30:00,
2013-05-09 10:35:00,58.5,32.3,30.21,ENE,69,4.0,4.0,37,0.00,,,0.00,VWS V13.01,2013-05-09 17:35:00,
2013-05-09 10:40:00,59.0,32.8,30.21,ENE,69,0.0,0.0,37,0.00,,,0.00,VWS V13.01,2013-05-09 17:40:00,
2013-05-09 10:45:00,59.4,32.4,30.21,ENE,69,0.0,0.0,36,0.00,,,0.00,VWS V13.01,2013-05-09 17:45:00,
2013-05-09 10:50:00,59.9,32.9,30.21,ENE,69,3.1,3.1,36,0.00,,,0.00,VWS V13.01,2013-05-09 17:50:00,
2013-05-09 10:55:00,60.3,33.2,30.21,ENE,69,2.2,2.7,36,0.00,,,0.00,VWS V13.01,2013-05-09 17:55:00,
2013-05-09 11:00:00,61.7,33.8,30.21,North,357,6.3,6.3,35,0.00,,,0.00,VWS V13.01,2013-05-09 18:00:00,
2013-05-09 11:05:00,60.8,33.0,30.21,North,353,6.3,6.3,35,0.00,,,0.00,VWS V13.01,2013-05-09 18:05:00,
2013-05-09 11:10:00,60.4,32.7,30.21,North,357,5.4,5.8,35,0.00,,,0.00,VWS V13.01,2013-05-09 18:10:00,
2013-05-09 11:15:00,60.4,32.7,30.21,North,2,7.2,7.6,35,0.00,,,0.00,VWS V13.01,2013-05-09 18:15:00,
2013-05-09 11:20:00,59.7,32.7,30.21,North,5,8.3,8.3,36,0.00,,,0.00,VWS V13.01,2013-05-09 18:20:00,
2013-05-09 11:25:00,59.9,32.9,30.21,NNW,346,5.8,8.3,36,0.00,,,0.00,VWS V13.01,2013-05-09 18:25:00,
2013-05-09 11:30:00,60.1,33.1,30.21,NNE,16,6.3,8.1,36,0.00,,,0.00,VWS V13.01,2013-05-09 18:30:00,
2013-05-09 11:35:00,60.4,32.7,30.21,NNW,327,6.3,7.2,35,0.00,,,0.00,VWS V13.01,2013-05-09 18:35:00,
2013-05-09 11:40:00,59.7,32.7,30.21,NNW,335,10.1,10.1,36,0.00,,,0.00,VWS V13.01,2013-05-09 18:40:00,
2013-05-09 11:45:00,59.7,32.7,30.21,NNW,327,3.6,5.4,36,0.00,,,0.00,VWS V13.01,2013-05-09 18:45:00,
2013-05-09 11:50:00,59.9,32.9,30.21,North,0,4.5,10.1,36,0.00,,,0.00,VWS V13.01,2013-05-09 18:50:00,
2013-05-09 11:55:00,60.6,33.5,30.21,North,353,8.3,9.2,36,0.00,,,0.00,VWS V13.01,2013-05-09 18:55:00,
2013-05-09 12:00:00,60.8,33.0,30.21,North,6,5.4,6.3,35,0.00,,,0.00,VWS V13.01,2013-05-09 19:00:00,
2013-05-09 12:05:00,60.6,32.8,30.21,NNE,29,6.3,6.3,35,0.00,,,0.00,VWS V13.01,2013-05-09 19:05:00,
2013-05-09 12:10:00,60.8,33.0,30.21,NE,34,3.6,8.7,35,0.00,,,0.00,VWS V13.01,2013-05-09 19:10:00,
2013-05-09 12:15:00,61.3,33.5,30.21,North,2,4.5,10.5,35,0.00,,,0.00,VWS V13.01,2013-05-09 19:15:00,
2013-05-09 12:20:00,61.2,33.3,30.21,NW,322,8.1,10.1,35,0.00,,,0.00,VWS V13.01,2013-05-09 19:20:00,
2013-05-09 12:25:00,60.3,32.5,30.21,NW,310,10.1,10.1,35,0.00,,,0.00,VWS V13.01,2013-05-09 19:25:00,
2013-05-09 12:30:00,59.9,32.2,30.21,NNE,27,8.7,8.7,35,0.00,,,0.00,VWS V13.01,2013-05-09 19:30:00,
2013-05-09 12:35:00,59.4,31.7,30.21,NNE,21,10.5,10.5,35,0.00,,,0.00,VWS V13.01,2013-05-09 19:35:00,
2013-05-09 12:39:00,59.5,32.6,30.21,NNW,332,5.8,8.7,36,0.00,,,0.00,VWS V13.01,2013-05-09 19:39:00,
2013-05-09 12:44:00,60.4,32.7,30.21,NNE,30,6.3,8.7,35,0.00,,,0.00,VWS V13.01,2013-05-09 19:44:00,
2013-05-09 12:49:00,60.8,33.0,30.21,NW,315,7.6,10.5,35,0.00,,,0.00,VWS V13.01,2013-05-09 19:49:00,
2013-05-09 12:54:00,61.0,33.2,30.21,NNW,338,5.4,10.1,35,0.00,,,0.00,VWS V13.01,2013-05-09 19:54:00,
2013-05-09 12:59:00,61.9,34.0,30.21,NE,54,7.6,8.3,35,0.00,,,0.00,VWS V13.01,2013-05-09 19:59:00,
2013-05-09 13:04:00,62.1,34.1,30.21,NE,55,8.1,8.7,35,0.00,,,0.00,VWS V13.01,2013-05-09 20:04:00,
2013-05-09 13:09:00,62.6,33.9,30.21,ENE,60,6.3,6.3,34,0.00,,,0.00,VWS V13.01,2013-05-09 20:09:00,
2013-05-09 13:14:00,62.4,34.4,30.21,NW,317,8.1,10.1,35,0.00,,,0.00,VWS V13.01,2013-05-09 20:14:00,
2013-05-09 13:19:00,61.9,34.0,30.21,ENE,68,8.7,8.7,35,0.00,,,0.00,VWS V13.01,2013-05-09 20:19:00,
2013-05-09 13:24:00,61.7,33.8,30.21,NNE,31,8.1,8.7,35,0.00,,,0.00,VWS V13.01,2013-05-09 20:24:00,
2013-05-09 13:29:00,62.2,34.3,30.21,North,6,5.4,6.3,35,0.00,,,0.00,VWS V13.01,2013-05-09 20:29:00,
2013-05-09 13:34:00,62.8,34.0,30.21,NW,320,7.6,8.1,34,0.00,,,0.00,VWS V13.01,2013-05-09 20:34:00,
2013-05-09 13:39:00,62.2,34.3,30.21,NNE,31,5.4,10.5,35,0.00,,,0.00,VWS V13.01,2013-05-09 20:39:00,
2013-05-09 13:44:00,62.8,34.0,30.21,NNE,26,8.7,12.3,34,0.00,,,0.00,VWS V13.01,2013-05-09 20:44:00,
2013-05-09 13:49:00,61.9,34.0,30.21,NNE,25,10.1,11.4,35,0.00,,,0.00,VWS V13.01,2013-05-09 20:49:00,
2013-05-09 13:54:00,62.1,34.1,30.21,North,0,11.0,11.0,35,0.00,,,0.00,VWS V13.01,2013-05-09 20:54:00,
2013-05-09 13:59:00,61.5,33.6,30.21,NE,40,10.5,10.5,35,0.00,,,0.00,VWS V13.01,2013-05-09 20:59:00,
2013-05-09 14:04:00,61.5,33.6,30.21,North,357,6.7,8.1,35,0.00,,,0.00,VWS V13.01,2013-05-09 21:04:00,
2013-05-09 14:09:00,61.7,33.8,30.21,NNE,20,11.0,11.0,35,0.00,,,0.00,VWS V13.01,2013-05-09 21:09:00,
2013-05-09 14:14:00,61.3,33.5,30.21,North,357,8.1,8.1,35,0.00,,,0.00,VWS V13.01,2013-05-09 21:14:00,
2013-05-09 14:19:00,61.2,33.3,30.18,NE,37,10.5,11.4,35,0.00,,,0.00,VWS V13.01,2013-05-09 21:19:00,
2013-05-09 14:24:00,60.6,33.5,30.18,NNE,28,10.5,10.5,36,0.00,,,0.00,VWS V13.01,2013-05-09 21:24:00,
2013-05-09 14:29:00,60.8,33.0,30.18,North,10,6.3,9.6,35,0.00,,,0.00,VWS V13.01,2013-05-09 21:29:00,
2013-05-09 14:34:00,61.0,33.2,30.18,NNE,22,7.2,11.0,35,0.00,,,0.00,VWS V13.01,2013-05-09 21:34:00,
2013-05-09 14:39:00,61.5,33.6,30.18,NNE,33,15.4,15.4,35,0.00,,,0.00,VWS V13.01,2013-05-09 21:39:00,
2013-05-09 14:44:00,59.4,32.4,30.18,ENE,71,13.6,13.6,36,0.00,,,0.00,VWS V13.01,2013-05-09 21:44:00,
2013-05-09 14:49:00,60.1,33.1,30.18,NNE,18,8.3,11.4,36,0.00,,,0.00,VWS V13.01,2013-05-09 21:49:00,
2013-05-09 14:54:00,60.4,33.4,30.18,ENE,65,12.8,13.2,36,0.00,,,0.00,VWS V13.01,2013-05-09 21:54:00,
2013-05-09 14:59:00,61.3,33.5,30.18,NNW,338,11.0,11.0,35,0.00,,,0.00,VWS V13.01,2013-05-09 21:59:00,
2013-05-09 15:04:00,61.7,33.8,30.18,NNE,28,10.5,11.9,35,0.00,,,0.00,VWS V13.01,2013-05-09 22:04:00,
2013-05-09 15:09:00,61.5,33.6,30.18,NNE,30,8.3,11.0,35,0.00,,,0.00,VWS V13.01,2013-05-09 22:09:00,
2013-05-09 15:14:00,60.4,32.7,30.18,NE,48,15.4,15.4,35,0.00,,,0.00,VWS V13.01,2013-05-09 22:14:00,
2013-05-09 15:19:00,59.9,32.2,30.18,NE,49,11.0,14.1,35,0.00,,,0.00,VWS V13.01,2013-05-09 22:19:00,
2013-05-09 15:24:00,60.6,32.8,30.18,NNE,32,5.4,10.1,35,0.00,,,0.00,VWS V13.01,2013-05-09 22:24:00,
2013-05-09 15:29:00,60.6,32.8,30.18,NE,52,10.5,14.5,35,0.00,,,0.00,VWS V13.01,2013-05-09 22:29:00,
2013-05-09 15:34:00,61.3,33.5,30.18,NE,35,5.8,8.3,35,0.00,,,0.00,VWS V13.01,2013-05-09 22:34:00,
2013-05-09 15:39:00,60.6,32.8,30.18,North,10,4.9,10.1,35,0.00,,,0.00,VWS V13.01,2013-05-09 22:39:00,
2013-05-09 15:44:00,60.8,33.0,30.18,NNE,15,8.1,8.7,35,0.00,,,0.00,VWS V13.01,2013-05-09 22:44:00,
2013-05-09 15:49:00,60.4,32.7,30.18,North,0,5.8,8.3,35,0.00,,,0.00,VWS V13.01,2013-05-09 22:49:00,
2013-05-09 15:54:00,60.4,32.7,30.18,NNE,15,8.1,12.3,35,0.00,,,0.00,VWS V13.01,2013-05-09 22:54:00,
2013-05-09 15:59:00,60.3,32.5,30.18,NW,326,8.1,8.3,35,0.00,,,0.00,VWS V13.01,2013-05-09 22:59:00,
2013-05-09 16:04:00,60.6,32.8,30.15,NNW,335,8.3,12.3,35,0.00,,,0.00,VWS V13.01,2013-05-09 23:04:00,
2013-05-09 16:09:00,60.4,32.7,30.15,NNE,29,11.0,13.6,35,0.00,,,0.00,VWS V13.01,2013-05-09 23:09:00,
2013-05-09 16:14:00,59.5,31.9,30.15,ENE,75,11.0,13.2,35,0.00,,,0.00,VWS V13.01,2013-05-09 23:14:00,
2013-05-09 16:19:00,60.3,33.2,30.15,NNE,18,4.9,7.6,36,0.00,,,0.00,VWS V13.01,2013-05-09 23:19:00,
2013-05-09 16:24:00,61.5,33.6,30.15,North,5,5.8,5.8,35,0.00,,,0.00,VWS V13.01,2013-05-09 23:24:00,
2013-05-09 16:29:00,60.3,32.5,30.15,North,6,5.8,8.3,35,0.00,,,0.00,VWS V13.01,2013-05-09 23:29:00,
2013-05-09 16:34:00,60.8,33.0,30.15,NNE,24,8.1,10.1,35,0.00,,,0.00,VWS V13.01,2013-05-09 23:34:00,
2013-05-09 16:39:00,60.3,32.5,30.15,North,357,8.3,8.3,35,0.00,,,0.00,VWS V13.01,2013-05-09 23:39:00,
2013-05-09 16:44:00,60.6,32.8,30.15,NE,39,10.5,10.5,35,0.00,,,0.00,VWS V13.01,2013-05-09 23:44:00,
2013-05-09 16:49:00,59.5,31.9,30.15,ENE,62,8.7,8.7,35,0.00,,,0.00,VWS V13.01,2013-05-09 23:49:00,
2013-05-09 16:54:00,59.7,32.7,30.15,ENE,68,8.7,8.7,36,0.00,,,0.00,VWS V13.01,2013-05-09 23:54:00,
2013-05-09 16:59:00,59.9,32.2,30.15,North,357,8.1,12.8,35,0.00,,,0.00,VWS V13.01,2013-05-09 23:59:00,
2013-05-09 17:04:00,60.3,32.5,30.15,NNE,23,6.3,8.1,35,0.00,,,0.00,VWS V13.01,2013-05-10 00:04:00,
2013-05-09 17:09:00,60.8,33.0,30.15,NNE,14,7.6,7.6,35,0.00,,,0.00,VWS V13.01,2013-05-10 00:09:00,
2013-05-09 17:14:00,60.6,32.8,30.15,NNE,21,8.3,8.3,35,0.00,,,0.00,VWS V13.01,2013-05-10 00:14:00,
2013-05-09 17:19:00,59.2,32.3,30.15,NNE,16,8.3,15.9,36,0.00,,,0.00,VWS V13.01,2013-05-10 00:19:00,
2013-05-09 17:24:00,59.0,32.1,30.15,NE,45,6.3,8.7,36,0.00,,,0.00,VWS V13.01,2013-05-10 00:24:00,
2013-05-09 17:29:00,60.4,32.7,30.15,NNE,29,6.3,8.3,35,0.00,,,0.00,VWS V13.01,2013-05-10 00:29:00,
2013-05-09 17:34:00,60.1,32.4,30.15,ENE,68,5.8,9.6,35,0.00,,,0.00,VWS V13.01,2013-05-10 00:34:00,
2013-05-09 17:39:00,59.2,32.3,30.15,ENE,73,5.8,8.7,36,0.00,,,0.00,VWS V13.01,2013-05-10 00:39:00,
2013-05-09 17:44:00,60.3,33.2,30.15,NW,313,5.4,5.8,36,0.00,,,0.00,VWS V13.01,2013-05-10 00:44:00,
2013-05-09 17:49:00,59.5,32.6,30.15,NE,50,8.3,9.2,36,0.00,,,0.00,VWS V13.01,2013-05-10 00:49:00,
2013-05-09 17:54:00,60.6,33.5,30.15,North,353,5.4,5.4,36,0.00,,,0.00,VWS V13.01,2013-05-10 00:54:00,
2013-05-09 18:00:00,60.8,33.0,30.15,North,7,2.7,4.9,35,0.00,,,0.00,VWS V13.01,2013-05-10 01:00:00,
2013-05-09 18:05:00,61.5,33.6,30.15,North,10,8.1,8.3,35,0.00,,,0.00,VWS V13.01,2013-05-10 01:05:00,
2013-05-09 18:10:00,60.1,32.4,30.15,NNE,20,5.8,8.3,35,0.00,,,0.00,VWS V13.01,2013-05-10 01:10:00,
2013-05-09 18:15:00,60.4,32.7,30.15,NNW,335,8.3,8.7,35,0.00,,,0.00,VWS V13.01,2013-05-10 01:15:00,
2013-05-09 18:20:00,59.2,31.6,30.15,NNE,30,8.7,11.0,35,0.00,,,0.00,VWS V13.01,2013-05-10 01:20:00,
2013-05-09 18:25:00,59.0,32.1,30.15,NNE,30,10.1,10.1,36,0.00,,,0.00,VWS V13.01,2013-05-10 01:25:00,
2013-05-09 18:30:00,59.0,32.1,30.15,NNE,12,5.8,8.1,36,0.00,,,0.00,VWS V13.01,2013-05-10 01:30:00,
2013-05-09 18:35:00,59.5,32.6,30.12,NE,35,4.0,5.8,36,0.00,,,0.00,VWS V13.01,2013-05-10 01:35:00,
2013-05-09 18:40:00,59.9,32.9,30.12,North,357,7.6,7.6,36,0.00,,,0.00,VWS V13.01,2013-05-10 01:40:00,
2013-05-09 18:45:00,59.9,32.9,30.12,NNW,328,7.2,7.2,36,0.00,,,0.00,VWS V13.01,2013-05-10 01:45:00,
2013-05-09 18:50:00,59.9,32.9,30.12,North,353,5.4,7.6,36,0.00,,,0.00,VWS V13.01,2013-05-10 01:50:00,
2013-05-09 18:55:00,60.4,32.7,30.12,NNE,18,4.0,5.8,35,0.00,,,0.00,VWS V13.01,2013-05-10 01:55:00,
2013-05-09 19:00:00,60.8,33.0,30.12,North,6,8.1,8.7,35,0.00,,,0.00,VWS V13.01,2013-05-10 02:00:00,
2013-05-09 19:05:00,59.9,32.9,30.12,North,357,2.7,6.3,36,0.00,,,0.00,VWS V13.01,2013-05-10 02:05:00,
2013-05-09 19:10:00,59.7,32.7,30.12,NNE,29,8.3,10.5,36,0.00,,,0.00,VWS V13.01,2013-05-10 02:10:00,
2013-05-09 19:15:00,58.3,32.2,30.12,NW,313,5.8,5.8,37,0.00,,,0.00,VWS V13.01,2013-05-10 02:15:00,
2013-05-09 19:20:00,58.3,32.2,30.15,NNE,20,4.0,8.3,37,0.00,,,0.00,VWS V13.01,2013-05-10 02:20:00,
2013-05-09 19:25:00,57.7,31.7,30.15,NNW,338,5.8,6.3,37,0.00,,,0.00,VWS V13.01,2013-05-10 02:25:00,
2013-05-09 19:30:00,57.2,31.2,30.15,ENE,63,5.8,8.1,37,0.00,,,0.00,VWS V13.01,2013-05-10 02:30:00,
2013-05-09 19:35:00,56.8,31.5,30.15,NNE,18,8.1,8.1,38,0.00,,,0.00,VWS V13.01,2013-05-10 02:35:00,
2013-05-09 19:40:00,55.4,32.1,30.15,NNE,23,8.1,10.5,41,0.00,,,0.00,VWS V13.01,2013-05-10 02:40:00,
2013-05-09 19:44:00,55.6,32.9,30.15,NNE,17,5.8,8.1,42,0.00,,,0.00,VWS V13.01,2013-05-10 02:44:00,
2013-05-09 19:49:00,55.6,32.9,30.15,ENE,61,4.0,5.4,42,0.00,,,0.00,VWS V13.01,2013-05-10 02:49:00,
2013-05-09 19:54:00,55.8,33.0,30.15,NNE,12,6.3,6.3,42,0.00,,,0.00,VWS V13.01,2013-05-10 02:54:00,
2013-05-09 19:59:00,55.6,33.5,30.15,North,0,5.4,7.6,43,0.00,,,0.00,VWS V13.01,2013-05-10 02:59:00,
2013-05-09 20:04:00,55.9,33.8,30.15,North,357,4.9,6.3,43,0.00,,,0.00,VWS V13.01,2013-05-10 03:04:00,
2013-05-09 20:10:00,55.8,33.0,30.15,North,353,2.2,3.6,42,0.00,,,0.00,VWS V13.01,2013-05-10 03:10:00,
2013-05-09 20:14:00,55.6,32.9,30.15,North,353,4.9,4.9,42,0.00,,,0.00,VWS V13.01,2013-05-10 03:14:00,
2013-05-09 20:19:00,55.2,33.1,30.15,North,4,4.9,4.9,43,0.00,,,0.00,VWS V13.01,2013-05-10 03:19:00,
2013-05-09 20:24:00,54.9,33.4,30.15,North,357,4.0,4.0,44,0.00,,,0.00,VWS V13.01,2013-05-10 03:24:00,
2013-05-09 20:29:00,54.3,33.5,30.15,NNW,342,3.6,6.3,45,0.00,,,0.00,VWS V13.01,2013-05-10 03:29:00,
2013-05-09 20:34:00,53.6,33.9,30.15,ENE,65,5.4,5.8,47,0.00,,,0.00,VWS V13.01,2013-05-10 03:34:00,
2013-05-09 20:39:00,53.1,34.4,30.15,NE,48,7.6,8.7,49,0.00,,,0.00,VWS V13.01,2013-05-10 03:39:00,
2013-05-09 20:44:00,52.7,35.1,30.15,ENE,60,8.1,8.1,51,0.00,,,0.00,VWS V13.01,2013-05-10 03:44:00,
2013-05-09 20:49:00,52.7,35.1,30.15,NNE,15,2.2,3.6,51,0.00,,,0.00,VWS V13.01,2013-05-10 03:49:00,
2013-05-09 20:54:00,52.7,35.1,30.15,NNE,16,4.0,4.0,51,0.00,,,0.00,VWS V13.01,2013-05-10 03:54:00,
2013-05-09 20:59:00,52.7,35.1,30.15,NNE,15,0.0,0.0,51,0.00,,,0.00,VWS V13.01,2013-05-10 03:59:00,
2013-05-09 21:01:00,52.5,34.9,30.15,NNE,15,0.0,0.0,51,0.00,,,0.00,VWS V13.01,2013-05-10 04:01:00,
2013-05-09 21:06:00,52.7,35.6,30.15,NNE,15,0.0,0.0,52,0.00,,,0.00,VWS V13.01,2013-05-10 04:06:00,
2013-05-09 21:11:00,52.7,35.1,30.15,NNE,15,0.0,0.0,51,0.00,,,0.00,VWS V13.01,2013-05-10 04:11:00,
2013-05-09 21:16:00,52.7,35.1,30.15,NNE,15,0.0,0.0,51,0.00,,,0.00,VWS V13.01,2013-05-10 04:16:00,
2013-05-09 21:21:00,52.7,35.1,30.15,NNE,15,0.0,0.0,51,0.00,,,0.00,VWS V13.01,2013-05-10 04:21:00,
2013-05-09 21:26:00,52.5,34.9,30.15,NNE,15,0.0,0.0,51,0.00,,,0.00,VWS V13.01,2013-05-10 04:26:00,
2013-05-09 21:31:00,52.5,34.9,30.15,NNE,15,0.0,0.0,51,0.00,,,0.00,VWS V13.01,2013-05-10 04:31:00,
2013-05-09 21:36:00,52.3,34.8,30.18,NNE,15,0.0,0.0,51,0.00,,,0.00,VWS V13.01,2013-05-10 04:36:00,
2013-05-09 21:41:00,52.2,34.6,30.18,North,357,0.0,0.0,51,0.00,,,0.00,VWS V13.01,2013-05-10 04:41:00,
2013-05-09 21:46:00,52.0,34.4,30.18,North,357,0.0,0.0,51,0.00,,,0.00,VWS V13.01,2013-05-10 04:46:00,
2013-05-09 21:51:00,52.0,34.4,30.18,North,357,0.0,0.0,51,0.00,,,0.00,VWS V13.01,2013-05-10 04:51:00,
2013-05-09 21:56:00,51.8,34.3,30.18,North,353,0.0,0.0,51,0.00,,,0.00,VWS V13.01,2013-05-10 04:56:00,
2013-05-09 22:01:00,51.6,34.6,30.18,North,353,0.0,0.0,52,0.00,,,0.00,VWS V13.01,2013-05-10 05:01:00,
2013-05-09 22:06:00,51.6,36.0,30.18,NNW,341,0.0,2.7,55,0.00,,,0.00,VWS V13.01,2013-05-10 05:06:00,
2013-05-09 22:11:00,51.6,36.9,30.18,NW,307,3.6,4.0,57,0.00,,,0.00,VWS V13.01,2013-05-10 05:11:00,
2013-05-09 22:16:00,51.6,37.8,30.18,NW,307,0.0,0.0,59,0.00,,,0.00,VWS V13.01,2013-05-10 05:16:00,
2013-05-09 22:21:00,51.6,38.2,30.18,West,268,0.0,0.0,60,0.00,,,0.00,VWS V13.01,2013-05-10 05:21:00,
2013-05-09 22:26:00,51.6,38.6,30.18,West,268,0.0,3.1,61,0.00,,,0.00,VWS V13.01,2013-05-10 05:26:00,
2013-05-09 22:31:00,51.8,40.0,30.18,West,266,0.0,2.7,64,0.00,,,0.00,VWS V13.01,2013-05-10 05:31:00,
2013-05-09 22:36:00,51.8,40.4,30.18,West,266,3.6,3.6,65,0.00,,,0.00,VWS V13.01,2013-05-10 05:36:00,
2013-05-09 22:41:00,52.0,41.0,30.18,West,259,3.6,3.6,66,0.00,,,0.00,VWS V13.01,2013-05-10 05:41:00,
2013-05-09 22:46:00,52.0,41.0,30.18,West,261,3.1,4.0,66,0.00,,,0.00,VWS V13.01,2013-05-10 05:46:00,
2013-05-09 22:51:00,52.2,41.5,30.18,WNW,296,3.6,5.4,67,0.00,,,0.00,VWS V13.01,2013-05-10 05:51:00,
2013-05-09 22:56:00,52.2,41.5,30.18,WSW,258,3.1,3.6,67,0.00,,,0.00,VWS V13.01,2013-05-10 05:56:00,
2013-05-09 23:01:00,52.2,41.5,30.18,WSW,243,4.0,4.9,67,0.00,,,0.00,VWS V13.01,2013-05-10 06:01:00,
2013-05-09 23:06:00,52.0,41.0,30.18,SW,235,0.0,3.6,66,0.00,,,0.00,VWS V13.01,2013-05-10 06:06:00,
2013-05-09 23:11:00,52.2,41.2,30.18,SW,235,0.0,3.1,66,0.00,,,0.00,VWS V13.01,2013-05-10 06:11:00,
2013-05-09 23:16:00,52.2,41.2,30.18,SE,146,3.1,4.0,66,0.00,,,0.00,VWS V13.01,2013-05-10 06:16:00,
2013-05-09 23:21:00,52.0,40.6,30.18,SE,146,4.0,4.0,65,0.00,,,0.00,VWS V13.01,2013-05-10 06:21:00,
2013-05-09 23:26:00,52.0,40.6,30.18,South,176,3.6,5.4,65,0.00,,,0.00,VWS V13.01,2013-05-10 06:26:00,
2013-05-09 23:31:00,52.0,40.6,30.18,South,177,0.0,0.0,65,0.00,,,0.00,VWS V13.01,2013-05-10 06:31:00,
2013-05-09 23:36:00,52.0,40.2,30.18,South,177,3.1,5.8,64,0.00,,,0.00,VWS V13.01,2013-05-10 06:36:00,
2013-05-09 23:41:00,52.2,40.8,30.18,South,177,2.2,2.2,65,0.00,,,0.00,VWS V13.01,2013-05-10 06:41:00,
2013-05-09 23:46:00,52.2,40.8,30.18,South,177,0.0,0.0,65,0.00,,,0.00,VWS V13.01,2013-05-10 06:46:00,
2013-05-09 23:51:00,52.3,40.9,30.21,South,177,0.0,0.0,65,0.00,,,0.00,VWS V13.01,2013-05-10 06:51:00,
2013-05-09 23:56:00,52.3,40.5,30.21,South,177,0.0,0.0,64,0.00,,,0.00,VWS V13.01,2013-05-10 06:56:00,